Portada
METAR-TAF:

METAR-TAF

Aeroports :

Nowra, Austràlia

latitud: 34-57S, longitud: 150-32E, altitud: 122 m

Observació

L'informe es va fer fa 21 minuts, a les 12:30 UTC
Vent 9 kt del Sud
Temperatura 13°C
Humitat 100%
Pressió 1007 hPa
Visibilitat 10 km o més
Cel ennuvolat a una alçada de 1000 ft
Cel cobert a una alçada de 1800 ft

METAR: YSNW 241230Z AUTO 17009KT 9999 // BKN010 OVC018 13/13 Q1007

Hora: 23:51 (12:51 UTC)


TAF: manca

Observacions i pronòstics meteorològics de més de 4000 aeroports (METAR i TAF).

Les estacions disponibles són els punts grocs i vermells al mapa.

Posi el ratolí al punt desitjat per veure el nom de l'estació.

Feu clic per veure les observacions i els pronòstics meteorològics.

Per canviar el mapa: feu clic els botons verds amb una creu de color negre per apropar; al botó verd amb un guió per allunyar la imatge; o en les fletxes verdes per a mapes adjacents.


METAR-TAF: